createdAt,value
2022-08-18T00:01:04.127Z,8.40
2022-08-18T00:02:17.075Z,7.60
2022-08-18T00:03:26.868Z,6.40
2022-08-18T00:04:57.116Z,7.00
2022-08-18T00:06:05.248Z,10.80
2022-08-18T00:07:15.589Z,8.90
2022-08-18T00:08:24.146Z,7.30
2022-08-18T00:09:32.980Z,9.90
2022-08-18T00:10:43.818Z,6.70
2022-08-18T00:11:54.983Z,7.30
2022-08-18T00:13:03.571Z,7.80
2022-08-18T00:14:21.641Z,7.30
2022-08-18T00:15:30.682Z,6.80
2022-08-18T00:16:38.252Z,7.60
2022-08-18T00:17:46.224Z,6.40
2022-08-18T00:18:53.871Z,7.50
2022-08-18T00:20:01.587Z,9.60
2022-08-18T00:21:09.815Z,8.10
2022-08-18T00:22:22.497Z,6.80
2022-08-18T00:23:34.810Z,9.80
2022-08-18T00:24:47.920Z,8.40
2022-08-18T00:25:59.146Z,7.70
2022-08-18T00:27:08.767Z,7.90
2022-08-18T00:28:16.611Z,5.40
2022-08-18T00:29:25.403Z,7.80
2022-08-18T00:30:33.265Z,7.20
2022-08-18T00:31:41.732Z,6.60
2022-08-18T00:32:54.398Z,6.80
2022-08-18T00:34:02.563Z,8.20
2022-08-18T00:35:28.968Z,8.70
2022-08-18T00:36:37.404Z,7.50
2022-08-18T00:37:48.230Z,7.20
2022-08-18T00:38:56.191Z,7.10
2022-08-18T00:40:05.610Z,7.50
2022-08-18T00:41:15.002Z,8.60
2022-08-18T00:42:30.738Z,9.60
2022-08-18T00:43:49.996Z,8.70
2022-08-18T00:44:58.580Z,6.30
2022-08-18T00:46:11.166Z,6.30
2022-08-18T00:47:41.024Z,7.00
2022-08-18T00:48:48.762Z,5.70
2022-08-18T00:49:57.080Z,6.30
2022-08-18T00:51:09.579Z,6.90
2022-08-18T00:52:18.859Z,7.40
2022-08-18T00:53:38.547Z,7.20
2022-08-18T00:54:46.348Z,7.10
2022-08-18T00:55:54.814Z,8.30
2022-08-18T00:57:08.080Z,6.00
2022-08-18T00:58:39.500Z,10.00
2022-08-18T01:00:10.529Z,5.20
2022-08-18T01:01:19.217Z,6.30
2022-08-18T01:02:38.764Z,7.50
2022-08-18T01:03:46.514Z,7.30
2022-08-18T01:05:20.914Z,11.20
2022-08-18T01:06:36.636Z,7.50
2022-08-18T01:07:48.770Z,6.40
2022-08-18T01:08:57.570Z,6.40
2022-08-18T01:10:07.668Z,7.90
2022-08-18T01:11:15.769Z,9.20
2022-08-18T01:12:46.328Z,6.90
2022-08-18T01:13:51.648Z,7.10
2022-08-18T01:14:59.618Z,9.20
2022-08-18T01:16:27.842Z,9.30
2022-08-18T01:17:54.458Z,7.00
2022-08-18T01:19:20.690Z,7.70
2022-08-18T01:20:56.502Z,7.20
2022-08-18T01:22:10.207Z,7.50
2022-08-18T01:23:19.031Z,6.30
2022-08-18T01:25:12.135Z,7.80
2022-08-18T01:26:21.029Z,7.90
2022-08-18T01:27:33.410Z,10.10
2022-08-18T01:28:43.323Z,7.50
2022-08-18T01:29:51.981Z,7.60
2022-08-18T01:31:00.683Z,7.40
2022-08-18T01:32:08.640Z,8.00
2022-08-18T01:33:17.399Z,6.80
2022-08-18T01:34:26.987Z,5.90
2022-08-18T01:35:41.946Z,9.50
2022-08-18T01:36:59.015Z,6.10
2022-08-18T01:38:10.245Z,6.80
2022-08-18T01:41:21.164Z,7.60
2022-08-18T01:41:23.343Z,7.80
2022-08-18T01:42:21.156Z,8.30
2022-08-18T01:43:29.939Z,9.70
2022-08-18T01:44:38.357Z,7.10
2022-08-18T01:45:47.198Z,8.00
2022-08-18T01:46:55.205Z,6.40
2022-08-18T01:48:06.623Z,8.60
2022-08-18T01:49:15.489Z,9.60
2022-08-18T01:50:25.012Z,8.50
2022-08-18T01:51:39.374Z,7.80
2022-08-18T01:52:48.917Z,9.80
2022-08-18T01:53:57.123Z,8.30
2022-08-18T01:55:05.292Z,8.10
2022-08-18T01:56:19.870Z,7.60
2022-08-18T01:57:27.614Z,8.00
2022-08-18T01:58:38.865Z,6.70
2022-08-18T01:59:47.196Z,7.60
2022-08-18T02:01:03.699Z,10.30
2022-08-18T02:02:12.449Z,6.80
2022-08-18T02:03:28.950Z,9.20
2022-08-18T02:04:39.738Z,6.90
2022-08-18T02:05:50.400Z,8.30
2022-08-18T02:06:59.131Z,7.90
2022-08-18T02:08:07.462Z,9.10
2022-08-18T02:09:14.895Z,8.60
2022-08-18T02:10:31.662Z,9.30
2022-08-18T02:11:38.862Z,7.20
2022-08-18T02:12:45.909Z,11.40
2022-08-18T02:13:53.242Z,8.20
2022-08-18T02:15:00.509Z,7.70
2022-08-18T02:16:07.901Z,8.40
2022-08-18T02:17:15.282Z,9.30
2022-08-18T02:18:35.403Z,8.30
2022-08-18T02:19:54.911Z,8.10
2022-08-18T02:21:15.410Z,8.00
2022-08-18T02:22:26.854Z,10.30
2022-08-18T02:23:33.988Z,11.00
2022-08-18T02:24:41.170Z,8.10
2022-08-18T02:25:48.153Z,9.30
2022-08-18T02:26:55.432Z,11.80
2022-08-18T02:28:02.540Z,12.40
2022-08-18T02:29:10.073Z,11.40
2022-08-18T02:30:18.521Z,12.30
2022-08-18T02:31:26.669Z,9.80
2022-08-18T02:32:34.390Z,8.30
2022-08-18T02:33:51.585Z,7.70
2022-08-18T02:35:00.515Z,8.90
2022-08-18T02:36:09.460Z,10.70
2022-08-18T02:37:17.199Z,8.80
2022-08-18T02:38:25.296Z,12.80
2022-08-18T02:39:33.033Z,8.30
2022-08-18T02:40:40.820Z,7.70
2022-08-18T02:41:49.105Z,8.60
2022-08-18T02:42:56.956Z,8.70
2022-08-18T02:44:05.072Z,8.10
2022-08-18T02:45:14.285Z,7.40
2022-08-18T02:46:22.314Z,7.90
2022-08-18T02:47:33.654Z,9.60
2022-08-18T02:48:42.111Z,8.10
2022-08-18T02:49:50.626Z,7.80
2022-08-18T02:51:04.490Z,12.70
2022-08-18T02:52:12.952Z,16.00
2022-08-18T02:53:29.823Z,11.00
2022-08-18T02:54:37.919Z,13.60
2022-08-18T02:55:46.167Z,7.80
2022-08-18T02:57:01.421Z,10.10
2022-08-18T02:58:10.191Z,9.60
2022-08-18T02:59:19.596Z,6.50
2022-08-18T03:00:27.485Z,7.10
2022-08-18T03:01:40.672Z,7.20
2022-08-18T03:02:52.596Z,11.60
2022-08-18T03:03:59.763Z,9.90
2022-08-18T03:05:08.553Z,9.90
2022-08-18T03:06:22.790Z,9.80
2022-08-18T03:07:31.179Z,9.70
2022-08-18T03:08:38.973Z,13.80
2022-08-18T03:09:46.669Z,9.70
2022-08-18T03:10:55.120Z,9.00
2022-08-18T03:12:03.300Z,9.30
2022-08-18T03:13:11.663Z,7.30
2022-08-18T03:14:20.245Z,11.10
2022-08-18T03:15:29.056Z,11.10
2022-08-18T03:16:36.581Z,9.30
2022-08-18T03:17:45.111Z,9.80
2022-08-18T03:18:54.830Z,8.80
2022-08-18T03:20:02.971Z,10.10
2022-08-18T03:21:12.339Z,8.80
2022-08-18T03:22:27.507Z,11.70
2022-08-18T03:23:38.341Z,10.10
2022-08-18T03:24:46.782Z,8.50
2022-08-18T03:25:55.041Z,14.10
2022-08-18T03:27:03.347Z,11.60
2022-08-18T03:28:11.273Z,8.80
2022-08-18T03:29:19.470Z,8.80
2022-08-18T03:30:27.759Z,9.20
2022-08-18T03:31:36.403Z,8.20
2022-08-18T03:32:45.709Z,8.70
2022-08-18T03:33:54.353Z,10.00
2022-08-18T03:35:02.366Z,8.80
2022-08-18T03:36:12.189Z,8.20
2022-08-18T03:37:20.015Z,9.00
2022-08-18T03:38:29.479Z,9.10
2022-08-18T03:39:37.747Z,10.90
2022-08-18T03:40:45.240Z,7.30
2022-08-18T03:41:58.634Z,10.70
2022-08-18T03:43:23.652Z,7.10
2022-08-18T03:44:40.478Z,8.30
2022-08-18T03:45:48.235Z,7.80
2022-08-18T03:46:55.739Z,8.30
2022-08-18T03:48:03.926Z,13.60
2022-08-18T03:49:12.410Z,9.50
2022-08-18T03:50:21.743Z,8.70
2022-08-18T03:51:36.431Z,8.30
2022-08-18T03:52:44.194Z,7.60
2022-08-18T03:53:52.079Z,12.00
2022-08-18T03:55:00.574Z,9.30
2022-08-18T03:56:17.912Z,15.10
2022-08-18T03:57:26.775Z,9.00
2022-08-18T03:58:34.353Z,7.30
2022-08-18T03:59:43.446Z,10.70
2022-08-18T04:00:51.588Z,9.50
2022-08-18T04:01:59.978Z,9.10
2022-08-18T04:03:08.589Z,9.80
2022-08-18T04:04:20.577Z,6.80
2022-08-18T04:05:30.413Z,9.70
2022-08-18T04:06:43.529Z,11.70
2022-08-18T04:07:51.585Z,9.90
2022-08-18T04:09:00.369Z,10.30
2022-08-18T04:10:16.289Z,9.10
2022-08-18T04:11:29.972Z,7.90
2022-08-18T04:12:44.384Z,10.20
2022-08-18T04:13:52.024Z,9.80
2022-08-18T04:15:00.207Z,10.60
2022-08-18T04:16:08.302Z,9.40
2022-08-18T04:17:16.752Z,8.10
2022-08-18T04:18:27.259Z,9.20
2022-08-18T04:19:36.044Z,8.80
2022-08-18T04:20:56.316Z,12.00
2022-08-18T04:22:08.094Z,9.00
2022-08-18T04:23:17.755Z,6.30
2022-08-18T04:24:28.156Z,8.50
2022-08-18T04:25:37.684Z,14.80
2022-08-18T04:26:47.306Z,9.50
2022-08-18T04:27:59.772Z,9.50
2022-08-18T04:29:08.903Z,11.70
2022-08-18T04:30:17.382Z,9.80
2022-08-18T04:31:26.732Z,8.00
2022-08-18T04:32:34.434Z,8.90
2022-08-18T04:33:42.423Z,9.40
2022-08-18T04:34:50.521Z,7.10
2022-08-18T04:35:58.812Z,11.30
2022-08-18T04:37:06.696Z,7.20
2022-08-18T04:38:15.765Z,7.20
2022-08-18T04:39:24.490Z,6.50
2022-08-18T04:40:35.219Z,8.20
2022-08-18T04:41:45.300Z,7.60
2022-08-18T04:42:53.110Z,7.50
2022-08-18T04:44:02.103Z,7.30
2022-08-18T04:45:11.764Z,9.50
2022-08-18T04:46:20.137Z,8.70
2022-08-18T04:47:31.934Z,8.00
2022-08-18T04:48:41.098Z,6.90
2022-08-18T04:49:48.888Z,7.00
2022-08-18T04:50:56.656Z,7.50
2022-08-18T04:52:39.914Z,6.50
2022-08-18T04:53:50.165Z,6.50
2022-08-18T04:54:58.523Z,6.50
2022-08-18T04:56:06.492Z,11.90
2022-08-18T04:57:17.471Z,10.50
2022-08-18T04:58:26.317Z,10.40
2022-08-18T04:59:34.492Z,9.20
2022-08-18T05:00:42.052Z,8.40
2022-08-18T05:01:50.496Z,7.80
2022-08-18T05:02:59.103Z,7.00
2022-08-18T05:04:06.802Z,9.60
2022-08-18T05:05:15.446Z,10.90
2022-08-18T05:06:27.434Z,10.00
2022-08-18T05:07:35.772Z,9.70
2022-08-18T05:08:43.785Z,9.00
2022-08-18T05:09:51.454Z,10.00
2022-08-18T05:11:03.664Z,7.90
2022-08-18T05:12:15.275Z,10.30
2022-08-18T05:13:23.732Z,16.70
2022-08-18T05:14:31.760Z,10.10
2022-08-18T05:16:06.966Z,10.40
2022-08-18T05:17:08.080Z,9.60
2022-08-18T05:18:16.103Z,9.60
2022-08-18T05:19:28.722Z,11.30
2022-08-18T05:20:42.197Z,9.50
2022-08-18T05:21:52.413Z,7.60
2022-08-18T05:23:00.447Z,9.00
2022-08-18T05:24:10.349Z,9.10
2022-08-18T05:25:18.975Z,7.80
2022-08-18T05:26:27.682Z,10.30
2022-08-18T05:27:37.056Z,8.70
2022-08-18T05:28:45.318Z,9.80
2022-08-18T05:29:52.720Z,10.50
2022-08-18T05:31:00.963Z,9.20
2022-08-18T05:32:09.940Z,8.70
2022-08-18T05:33:18.716Z,14.20
2022-08-18T05:34:26.564Z,11.40
2022-08-18T05:35:47.613Z,8.80
2022-08-18T05:37:11.301Z,10.60
2022-08-18T05:38:40.814Z,11.30
2022-08-18T05:39:54.388Z,9.80
2022-08-18T05:41:13.955Z,10.30
2022-08-18T05:42:23.085Z,10.10
2022-08-18T05:43:32.692Z,14.10
2022-08-18T05:44:47.655Z,10.70
2022-08-18T05:45:56.261Z,14.40
2022-08-18T05:47:29.053Z,12.50
2022-08-18T05:48:42.741Z,11.30
2022-08-18T05:49:52.718Z,11.30
2022-08-18T05:51:02.184Z,10.40
2022-08-18T05:52:15.403Z,9.60
2022-08-18T05:53:43.543Z,8.50
2022-08-18T05:55:12.057Z,14.80
2022-08-18T05:56:38.242Z,9.60
2022-08-18T05:57:58.499Z,11.20
2022-08-18T05:59:09.513Z,11.80
2022-08-18T06:00:18.041Z,13.60
2022-08-18T06:01:35.460Z,11.60
2022-08-18T06:03:03.705Z,13.20
2022-08-18T06:04:22.935Z,14.80
2022-08-18T06:05:36.069Z,11.70
2022-08-18T06:06:47.501Z,9.10
2022-08-18T06:08:07.449Z,13.80
2022-08-18T06:09:26.864Z,13.70
2022-08-18T06:10:34.593Z,14.20
2022-08-18T06:11:42.389Z,10.20
2022-08-18T06:13:00.392Z,10.30
2022-08-18T06:14:08.350Z,11.40
2022-08-18T06:15:42.973Z,12.40
2022-08-18T06:16:57.053Z,13.60
2022-08-18T06:18:43.469Z,8.90
2022-08-18T06:20:03.731Z,9.60
2022-08-18T06:21:27.141Z,9.40
2022-08-18T06:23:00.782Z,8.70
2022-08-18T06:24:13.504Z,13.50
2022-08-18T06:25:33.145Z,10.10
2022-08-18T06:26:41.675Z,11.20
2022-08-18T06:28:09.039Z,11.30
2022-08-18T06:29:43.091Z,12.10
2022-08-18T06:31:05.292Z,8.20
2022-08-18T06:32:35.643Z,9.60
2022-08-18T06:33:49.464Z,9.40
2022-08-18T06:35:16.253Z,12.50
2022-08-18T06:36:45.931Z,12.00
2022-08-18T06:38:15.274Z,13.40
2022-08-18T06:39:38.438Z,10.60
2022-08-18T06:40:45.791Z,13.30
2022-08-18T06:41:55.233Z,13.40
2022-08-18T06:43:03.284Z,10.70
2022-08-18T06:44:30.769Z,9.80
2022-08-18T06:45:40.243Z,14.00
2022-08-18T06:47:02.340Z,12.70
2022-08-18T06:48:25.380Z,11.20
2022-08-18T06:49:38.332Z,8.40
2022-08-18T06:50:58.950Z,11.30
2022-08-18T06:52:26.558Z,11.80
2022-08-18T06:53:54.965Z,10.60
2022-08-18T06:55:05.781Z,11.20
2022-08-18T06:56:46.887Z,10.20
2022-08-18T06:58:00.733Z,10.80
2022-08-18T06:59:18.960Z,13.10
2022-08-18T07:00:32.765Z,10.30
2022-08-18T07:01:40.623Z,9.10
2022-08-18T07:03:09.127Z,11.70
2022-08-18T07:04:39.791Z,9.80
2022-08-18T07:06:03.702Z,8.70
2022-08-18T07:07:40.962Z,11.20
2022-08-18T07:08:48.640Z,9.50
2022-08-18T07:09:57.335Z,8.90
2022-08-18T07:11:24.664Z,8.10
2022-08-18T07:12:32.971Z,10.20
2022-08-18T07:13:43.195Z,10.50
2022-08-18T07:15:04.587Z,9.90
2022-08-18T07:16:57.285Z,9.30
2022-08-18T07:18:09.657Z,9.50
2022-08-18T07:19:22.002Z,10.10
2022-08-18T07:20:30.014Z,8.80
2022-08-18T07:21:40.303Z,7.80
2022-08-18T07:23:00.789Z,9.10
2022-08-18T07:24:28.562Z,9.90
2022-08-18T07:25:44.432Z,8.90
2022-08-18T07:27:17.587Z,6.60
2022-08-18T07:28:38.016Z,7.80
2022-08-18T07:30:15.638Z,6.70
2022-08-18T07:31:28.396Z,9.60
2022-08-18T07:32:48.821Z,9.50
2022-08-18T07:34:06.874Z,9.10
2022-08-18T07:35:19.317Z,8.00
2022-08-18T07:36:30.681Z,11.80
2022-08-18T07:37:45.462Z,6.60
2022-08-18T07:39:04.024Z,8.80
2022-08-18T07:40:30.610Z,6.50
2022-08-18T07:41:53.604Z,7.10
2022-08-18T07:43:06.065Z,7.90
2022-08-18T07:44:35.919Z,10.50
2022-08-18T07:45:47.674Z,8.50
2022-08-18T07:47:07.059Z,8.10
2022-08-18T07:48:40.271Z,12.20
2022-08-18T07:50:15.762Z,9.80
2022-08-18T07:51:53.100Z,9.60
2022-08-18T07:53:41.204Z,7.10
2022-08-18T07:55:09.847Z,8.20
2022-08-18T07:56:51.666Z,8.00
2022-08-18T07:58:31.245Z,7.10
2022-08-18T08:00:18.772Z,7.30
2022-08-18T08:01:56.680Z,9.80
2022-08-18T08:03:25.940Z,9.00
2022-08-18T08:04:52.478Z,11.10
2022-08-18T08:06:25.359Z,8.80
2022-08-18T08:07:36.766Z,6.90
2022-08-18T08:08:50.676Z,6.80
2022-08-18T08:10:20.607Z,7.90
2022-08-18T08:11:32.003Z,6.90
2022-08-18T08:13:09.356Z,8.40
2022-08-18T08:14:43.581Z,10.50
2022-08-18T08:16:20.673Z,8.50
2022-08-18T08:17:50.821Z,8.50
2022-08-18T08:19:12.233Z,9.50
2022-08-18T08:20:48.026Z,10.00
2022-08-18T08:22:10.489Z,7.60
2022-08-18T08:23:31.695Z,8.30
2022-08-18T08:25:00.295Z,8.40
2022-08-18T08:26:27.638Z,7.80
2022-08-18T08:27:54.152Z,7.20
2022-08-18T08:29:13.112Z,8.30
2022-08-18T08:30:22.049Z,9.70
2022-08-18T08:31:40.768Z,8.20
2022-08-18T08:33:09.395Z,8.40
2022-08-18T08:34:53.277Z,9.40
2022-08-18T08:36:34.238Z,6.20
2022-08-18T08:37:43.277Z,7.70
2022-08-18T08:38:55.195Z,7.50
2022-08-18T08:40:22.765Z,12.20
2022-08-18T08:41:52.598Z,9.40
2022-08-18T08:43:11.948Z,8.80
2022-08-18T08:44:31.461Z,10.80
2022-08-18T08:45:46.918Z,7.60
2022-08-18T08:47:09.757Z,10.90
2022-08-18T08:48:19.100Z,9.80
2022-08-18T08:49:28.887Z,8.80
2022-08-18T08:50:46.465Z,7.50
2022-08-18T08:52:09.542Z,7.10
2022-08-18T08:53:40.650Z,8.80
2022-08-18T08:54:54.810Z,9.10
2022-08-18T08:56:10.585Z,8.70
2022-08-18T08:57:19.719Z,9.80
2022-08-18T08:58:38.463Z,11.30
2022-08-18T08:59:48.824Z,8.90
2022-08-18T09:00:57.289Z,9.10
2022-08-18T09:02:48.520Z,10.20
2022-08-18T09:04:05.848Z,8.30
2022-08-18T09:05:28.253Z,8.30
2022-08-18T09:06:58.331Z,11.00
2022-08-18T09:08:16.102Z,7.60
2022-08-18T09:09:46.956Z,11.30
2022-08-18T09:11:14.074Z,10.50
2022-08-18T09:12:47.815Z,9.60
2022-08-18T09:14:21.579Z,8.80
2022-08-18T09:15:59.146Z,9.60
2022-08-18T09:17:19.957Z,10.20
2022-08-18T09:18:46.488Z,7.80
2022-08-18T09:20:19.149Z,11.00
2022-08-18T09:21:38.585Z,8.40
2022-08-18T09:23:09.785Z,9.20
2022-08-18T09:24:21.219Z,11.70
2022-08-18T09:25:59.187Z,11.10
2022-08-18T09:27:29.098Z,10.00
2022-08-18T09:28:37.178Z,8.00
2022-08-18T09:30:12.584Z,11.60
2022-08-18T09:31:23.666Z,9.30
2022-08-18T09:32:36.342Z,7.40
2022-08-18T09:34:10.953Z,11.10
2022-08-18T09:35:36.444Z,8.60
2022-08-18T09:37:07.754Z,9.90
2022-08-18T09:38:40.231Z,9.70
2022-08-18T09:40:17.219Z,9.20
2022-08-18T09:41:34.872Z,11.60
2022-08-18T09:42:52.230Z,9.70
2022-08-18T09:46:06.897Z,9.60
2022-08-18T09:47:36.096Z,9.90
2022-08-18T09:50:26.640Z,12.20
2022-08-18T09:50:38.229Z,7.70
2022-08-18T09:51:40.187Z,14.20
2022-08-18T09:52:52.373Z,10.60
2022-08-18T09:54:15.189Z,9.50
2022-08-18T09:55:37.095Z,7.80
2022-08-18T09:56:57.742Z,10.40
2022-08-18T09:58:50.022Z,9.10
2022-08-18T10:00:16.779Z,12.30
2022-08-18T10:01:34.260Z,11.10
2022-08-18T10:04:36.471Z,8.70
2022-08-18T10:05:57.479Z,9.00
2022-08-18T10:07:21.248Z,10.10
2022-08-18T10:08:57.161Z,10.20
2022-08-18T10:11:01.004Z,9.90
2022-08-18T10:11:55.347Z,11.40
2022-08-18T10:13:25.881Z,10.10
2022-08-18T10:15:33.453Z,13.20
2022-08-18T10:18:31.860Z,8.70
2022-08-18T10:19:45.152Z,12.00
2022-08-18T10:21:24.551Z,11.30
2022-08-18T10:22:53.126Z,11.30
2022-08-18T10:25:44.042Z,12.60
2022-08-18T10:26:54.951Z,8.10
2022-08-18T10:28:07.062Z,10.10
2022-08-18T10:29:30.078Z,11.00
2022-08-18T10:30:57.616Z,9.00
2022-08-18T10:32:14.228Z,9.40
2022-08-18T10:34:01.742Z,9.10
2022-08-18T10:35:39.339Z,11.00
2022-08-18T10:36:58.920Z,8.30
2022-08-18T10:38:24.459Z,8.70
2022-08-18T10:39:42.257Z,14.40
2022-08-18T10:42:55.577Z,12.30
2022-08-18T10:44:20.774Z,10.30
2022-08-18T10:45:50.760Z,13.00
2022-08-18T10:47:12.242Z,13.40
2022-08-18T10:48:26.782Z,11.50
2022-08-18T10:49:38.386Z,16.40
2022-08-18T10:51:13.840Z,9.90
2022-08-18T10:52:54.409Z,10.50
2022-08-18T10:54:20.926Z,11.50
2022-08-18T10:55:50.155Z,11.40
2022-08-18T10:57:07.334Z,12.40
2022-08-18T10:58:47.775Z,11.50
2022-08-18T11:00:01.787Z,10.60
2022-08-18T11:01:54.913Z,10.90
2022-08-18T11:03:52.051Z,9.50
2022-08-18T11:04:59.949Z,9.80
2022-08-18T11:06:18.135Z,10.90
2022-08-18T11:07:34.369Z,10.20
2022-08-18T11:08:54.696Z,12.60
2022-08-18T11:10:27.923Z,12.00
2022-08-18T11:11:45.617Z,15.00
2022-08-18T11:13:24.449Z,14.90
2022-08-18T11:14:51.236Z,13.00
2022-08-18T11:16:23.916Z,9.00
2022-08-18T11:17:37.115Z,11.60
2022-08-18T11:18:53.398Z,13.90
2022-08-18T11:20:03.032Z,11.70
2022-08-18T11:23:08.621Z,9.40
2022-08-18T11:24:23.216Z,11.20
2022-08-18T11:25:37.492Z,11.60
2022-08-18T11:26:52.419Z,16.20
2022-08-18T11:28:01.761Z,12.00
2022-08-18T11:29:26.423Z,9.50
2022-08-18T11:30:40.212Z,13.00
2022-08-18T11:31:59.430Z,11.40
2022-08-18T11:33:10.529Z,11.90
2022-08-18T11:34:21.253Z,9.20
2022-08-18T11:35:37.107Z,11.10
2022-08-18T11:39:50.877Z,10.60
2022-08-18T11:41:17.704Z,12.30
2022-08-18T11:42:36.647Z,10.90
2022-08-18T11:43:46.754Z,12.50
2022-08-18T11:45:19.775Z,13.00
2022-08-18T11:46:40.190Z,11.60
2022-08-18T11:48:25.193Z,10.80
2022-08-18T11:49:39.066Z,10.70
2022-08-18T11:51:03.039Z,13.60
2022-08-18T11:52:32.743Z,11.30
2022-08-18T11:54:01.434Z,11.60
2022-08-18T11:55:15.226Z,10.60
2022-08-18T11:56:38.075Z,12.10
2022-08-18T11:57:59.725Z,13.30
2022-08-18T12:01:01.687Z,12.40
2022-08-18T12:02:12.868Z,12.50
2022-08-18T12:03:43.531Z,15.10
2022-08-18T12:04:56.747Z,14.30
2022-08-18T12:06:19.478Z,10.60
2022-08-18T12:07:34.140Z,12.60
2022-08-18T12:09:13.866Z,14.20
2022-08-18T12:10:32.683Z,11.80
2022-08-18T12:11:40.663Z,13.90
2022-08-18T12:12:53.905Z,13.30
2022-08-18T12:14:32.703Z,12.40
2022-08-18T12:15:46.270Z,15.10
2022-08-18T12:16:59.733Z,16.50
2022-08-18T12:18:11.362Z,14.20
2022-08-18T12:19:35.662Z,12.50
2022-08-18T12:20:43.901Z,13.10
2022-08-18T12:21:55.324Z,11.60
2022-08-18T12:23:03.535Z,14.00
2022-08-18T12:24:26.308Z,13.40
2022-08-18T12:25:38.820Z,13.50
2022-08-18T12:26:47.461Z,16.80
2022-08-18T12:27:56.984Z,12.40
2022-08-18T12:29:04.534Z,13.80
2022-08-18T12:30:18.034Z,11.30
2022-08-18T12:33:05.399Z,13.10
2022-08-18T12:34:24.819Z,12.00
2022-08-18T12:35:37.102Z,15.20
2022-08-18T12:36:44.938Z,13.60
2022-08-18T12:38:11.191Z,13.10
2022-08-18T12:39:22.686Z,15.50
2022-08-18T12:40:33.134Z,12.10
2022-08-18T12:41:40.961Z,13.40
2022-08-18T12:42:52.279Z,10.90
2022-08-18T12:44:03.951Z,13.40
2022-08-18T12:45:18.538Z,12.20
2022-08-18T12:46:28.304Z,14.20
2022-08-18T12:47:36.231Z,14.40
2022-08-18T12:48:48.982Z,12.20
2022-08-18T12:49:57.109Z,14.80
2022-08-18T12:51:05.672Z,12.60
2022-08-18T12:52:14.476Z,11.50
2022-08-18T12:53:29.441Z,10.70
2022-08-18T12:54:55.732Z,12.70
2022-08-18T12:56:04.632Z,10.50
2022-08-18T12:57:33.192Z,12.20
2022-08-18T12:58:51.122Z,16.50
2022-08-18T12:59:58.584Z,11.20
2022-08-18T13:01:07.976Z,11.20
2022-08-18T13:02:16.504Z,22.80
2022-08-18T13:03:24.886Z,24.10
2022-08-18T13:04:35.969Z,18.30
2022-08-18T13:05:44.439Z,20.80
2022-08-18T13:07:00.474Z,15.30
2022-08-18T13:08:27.629Z,15.60
2022-08-18T13:09:53.636Z,14.10
2022-08-18T13:11:14.783Z,15.20
2022-08-18T13:12:29.908Z,13.30
2022-08-18T13:14:46.308Z,13.00
2022-08-18T13:15:58.457Z,14.60
2022-08-18T13:17:15.545Z,17.60
2022-08-18T13:18:43.309Z,16.70
2022-08-18T13:19:52.853Z,13.50
2022-08-18T13:21:05.019Z,16.50
2022-08-18T13:22:15.483Z,20.10
2022-08-18T13:23:25.283Z,15.00
2022-08-18T13:24:33.844Z,14.60
2022-08-18T13:25:43.535Z,16.20
2022-08-18T13:26:55.248Z,14.40
2022-08-18T13:28:03.552Z,14.30
2022-08-18T13:29:11.905Z,14.00
2022-08-18T13:30:29.872Z,13.10
2022-08-18T13:31:40.306Z,25.60
2022-08-18T13:32:58.928Z,18.00
2022-08-18T13:34:15.185Z,19.00
2022-08-18T13:35:25.002Z,20.00
2022-08-18T13:36:47.883Z,16.50
2022-08-18T13:37:58.217Z,26.50
2022-08-18T13:39:06.011Z,17.40
2022-08-18T13:40:17.202Z,18.50
2022-08-18T13:41:31.317Z,14.40
2022-08-18T13:42:51.166Z,14.90
2022-08-18T13:43:59.426Z,14.60
2022-08-18T13:45:25.072Z,14.10
2022-08-18T13:46:33.996Z,13.20
2022-08-18T13:47:42.223Z,14.70
2022-08-18T13:48:52.665Z,15.20
2022-08-18T13:50:01.756Z,10.80
2022-08-18T13:51:24.372Z,13.80
2022-08-18T13:52:34.779Z,12.30
2022-08-18T13:53:58.936Z,11.70
2022-08-18T13:55:17.525Z,14.10
2022-08-18T13:56:31.429Z,12.80
2022-08-18T13:57:40.950Z,13.70
2022-08-18T13:58:54.910Z,13.80
2022-08-18T14:00:03.125Z,11.00
2022-08-18T14:02:41.822Z,11.40
2022-08-18T14:03:52.147Z,11.90
2022-08-18T14:05:00.245Z,11.60
2022-08-18T14:06:09.754Z,12.70
2022-08-18T14:07:24.660Z,13.10
2022-08-18T14:08:36.100Z,12.90
2022-08-18T14:09:48.953Z,15.10
2022-08-18T14:10:58.690Z,13.60
2022-08-18T14:12:22.423Z,12.50
2022-08-18T14:13:38.119Z,9.40
2022-08-18T14:14:52.383Z,14.00
2022-08-18T14:16:04.399Z,14.70
2022-08-18T14:17:13.821Z,15.70
2022-08-18T14:18:22.216Z,13.80
2022-08-18T14:19:56.158Z,13.40
2022-08-18T14:21:25.607Z,15.40
2022-08-18T14:22:54.682Z,14.80
2022-08-18T14:24:21.601Z,17.70
2022-08-18T14:25:52.025Z,15.40
2022-08-18T14:26:59.932Z,13.60
2022-08-18T14:28:11.881Z,14.60
2022-08-18T14:29:44.803Z,16.20
2022-08-18T14:30:54.225Z,14.20
2022-08-18T14:32:03.364Z,18.40
2022-08-18T14:33:11.859Z,16.40
2022-08-18T14:34:28.501Z,15.20
2022-08-18T14:36:06.008Z,14.80
2022-08-18T14:37:05.438Z,16.20
2022-08-18T14:38:23.087Z,17.20
2022-08-18T14:39:31.318Z,13.40
2022-08-18T14:40:43.265Z,15.90
2022-08-18T14:41:56.210Z,17.30
2022-08-18T14:43:06.560Z,13.50
2022-08-18T14:44:21.817Z,14.80
2022-08-18T14:45:35.370Z,13.20
2022-08-18T14:46:53.914Z,12.80
2022-08-18T14:48:06.783Z,13.70
2022-08-18T14:49:28.517Z,14.60
2022-08-18T14:50:38.167Z,12.00
2022-08-18T14:51:46.082Z,15.00
2022-08-18T14:52:56.242Z,15.00
2022-08-18T14:54:04.574Z,11.80
2022-08-18T14:55:13.067Z,13.10
2022-08-18T14:56:22.196Z,15.30
2022-08-18T14:57:32.659Z,18.40
2022-08-18T14:58:42.798Z,14.70
2022-08-18T14:59:51.471Z,12.30
2022-08-18T15:01:02.055Z,16.60
2022-08-18T15:02:17.077Z,14.00
2022-08-18T15:03:31.027Z,14.40
2022-08-18T15:04:52.917Z,16.80
2022-08-18T15:06:07.169Z,12.90
2022-08-18T15:07:18.231Z,13.70
2022-08-18T15:08:35.201Z,13.70
2022-08-18T15:09:44.118Z,13.60
2022-08-18T15:10:55.762Z,10.30
2022-08-18T15:12:06.129Z,9.70
2022-08-18T15:13:19.394Z,16.90
2022-08-18T15:14:33.140Z,10.80
2022-08-18T15:15:50.806Z,14.20
2022-08-18T15:17:00.737Z,15.40
2022-08-18T15:18:09.910Z,14.40
2022-08-18T15:19:58.385Z,12.30
2022-08-18T15:21:04.917Z,12.80
2022-08-18T15:22:37.387Z,13.60
2022-08-18T15:24:03.784Z,12.90
2022-08-18T15:25:30.230Z,12.90
2022-08-18T15:26:40.112Z,13.70
2022-08-18T15:27:52.339Z,11.60
2022-08-18T15:29:00.926Z,13.60
2022-08-18T15:30:19.669Z,12.30
2022-08-18T15:33:03.191Z,10.70
2022-08-18T15:34:12.909Z,13.50
2022-08-18T15:35:21.401Z,17.30
2022-08-18T15:36:29.486Z,13.20
2022-08-18T15:37:39.020Z,12.70
2022-08-18T15:38:53.159Z,14.80
2022-08-18T15:40:31.169Z,10.20
2022-08-18T15:43:10.114Z,16.10
2022-08-18T15:44:20.636Z,14.50
2022-08-18T15:45:37.079Z,12.30
2022-08-18T15:46:53.187Z,16.60
2022-08-18T15:48:01.722Z,10.60
2022-08-18T15:49:14.876Z,15.30
2022-08-18T15:50:26.225Z,11.80
2022-08-18T15:51:41.019Z,16.60
2022-08-18T15:52:56.245Z,11.80
2022-08-18T15:54:04.254Z,16.30
2022-08-18T15:55:11.808Z,13.70
2022-08-18T15:56:25.876Z,12.90
2022-08-18T15:57:39.655Z,16.30
2022-08-18T15:58:52.343Z,14.80
2022-08-18T16:00:03.732Z,14.60
2022-08-18T16:01:32.427Z,12.70
2022-08-18T16:02:44.529Z,11.20
2022-08-18T16:03:57.677Z,10.60
2022-08-18T16:05:10.386Z,11.50
2022-08-18T16:06:22.549Z,11.10
2022-08-18T16:07:41.030Z,12.10
2022-08-18T16:08:56.217Z,11.70
2022-08-18T16:10:04.694Z,12.10
2022-08-18T16:11:24.592Z,13.50
2022-08-18T16:12:37.324Z,11.80
2022-08-18T16:13:57.019Z,11.80
2022-08-18T16:15:07.413Z,14.80
2022-08-18T16:16:28.971Z,12.10
2022-08-18T16:17:45.186Z,11.50
2022-08-18T16:18:55.769Z,12.30
2022-08-18T16:20:03.401Z,10.70
2022-08-18T16:21:13.105Z,13.60
2022-08-18T16:22:21.844Z,12.60
2022-08-18T16:23:30.215Z,16.30
2022-08-18T16:24:37.749Z,12.80
2022-08-18T16:25:46.456Z,13.40
2022-08-18T16:26:54.356Z,12.10
2022-08-18T16:28:03.095Z,14.90
2022-08-18T16:29:11.800Z,11.70
2022-08-18T16:30:22.296Z,13.20
2022-08-18T16:31:30.604Z,13.70
2022-08-18T16:32:38.192Z,10.10
2022-08-18T16:33:46.003Z,18.20
2022-08-18T16:34:53.911Z,10.70
2022-08-18T16:36:08.868Z,13.20
2022-08-18T16:38:25.819Z,12.00
2022-08-18T16:39:35.276Z,11.60
2022-08-18T16:40:43.459Z,12.50
2022-08-18T16:41:51.616Z,12.40
2022-08-18T16:43:01.424Z,11.40
2022-08-18T16:44:09.497Z,12.30
2022-08-18T16:45:17.660Z,10.40
2022-08-18T16:46:28.697Z,11.90
2022-08-18T16:47:40.818Z,12.10
2022-08-18T16:48:51.646Z,15.10
2022-08-18T16:50:00.006Z,11.30
2022-08-18T16:51:08.353Z,11.60
2022-08-18T16:52:17.502Z,12.90
2022-08-18T16:53:40.126Z,9.60
2022-08-18T16:54:57.979Z,9.80
2022-08-18T16:56:06.940Z,9.90
2022-08-18T16:57:52.441Z,11.80